Aeroporto :
LOGIN :

Iscrizione | Disclaimer

   EN    FR    IT 

 










Sommario :    VFR   VFR Marginale   IFR   IFR Intensivo   IFR Molto Intensivo
Visibilità : 
Base nubi : 
>= 8 km
>= 3000ft
5 / 8 km
1000 / 3000 ft
1500m / 5 km
500 / 1000 ft
800 / 1500m
200 / 500 ft
< 800m
< 200 ft
Simboli :   Temporali  Nebbia  Neve Forte  Precipitazioni Forti  Vento > 20 kt
SIGMETs :   Varie  Temporali  Ghiacco  Turbolenza  Onda orograficha  Ceneri Vulcaniche







- Altitudine del aeroporto : 157 ft
- Codice IATA : LIL
- Carte del aeroporto


LFQQ - Lille Lesquin

ULTIMO METAR :
  • 181030Z AUTO 15014KT 9999 OVC007 07/06 Q1018 BECMG NSC

METARs OBSOLETI :
  • 181000Z AUTO 16015KT 9999 OVC008 07/06 Q1019 BECMG NSC
  • 180930Z AUTO 16015KT 9999 OVC007 07/06 Q1019 BECMG NSC
  • 180900Z AUTO 16015KT 9999 OVC007 07/06 Q1019 BECMG NSC
  • 180830Z AUTO 16014KT 9999 OVC006 07/06 Q1019 BECMG NSC
  • 180800Z AUTO 16014KT 9999 OVC007 07/06 Q1019 TEMPO 2000 BR OVC002

TAF TAF LFQQ
Valido dal 18 a 06 ore il 19 a 12 ore UTC


180500Z 1806/1912 18015KT 8000 OVC007
TEMPO 1806/1809 2000 BR OVC002
BECMG 1810/1812 NSC
BECMG 1822/1824 18015G25KT
BECMG 1900/1903 19015KT RA OVC010
TEMPO 1903/1906 3000 DZRA OVC005
BECMG 1906/1909 NSW OVC017
ATIS : +33 3 20 16 19 54
Nessun NOTAM noto per questo aeroporto.



MetMap, La meteo Aeronautica in un colpo d'occhio ! - Copyright ORBIFLY Dicembre 2007 - Disclaimer

ORBIFLY MET'MAP TEAM :

Programmazione e sviluppo : Alexandra Zaïnal
Concezione e sviluppo : Baudouin d'Aumeries
Co-Programmazione e sviluppo : Marc-Olivier Méhu
Supporto tecnico e logistico : Manuel Goepfert
Aiuto per la traduzione : Arnaldo La Scala

Contatto : metmap@orbifly.com




FONTI E CREDITI :

   NOAA